createdAt,value
2018-02-24T00:01:42.556Z,22.03
2018-02-24T00:04:10.854Z,20.37
2018-02-24T00:06:39.130Z,20.30
2018-02-24T00:09:07.438Z,22.43
2018-02-24T00:11:35.002Z,20.90
2018-02-24T00:14:02.510Z,18.50
2018-02-24T00:16:30.035Z,17.80
2018-02-24T00:18:57.557Z,20.83
2018-02-24T00:21:25.963Z,20.37
2018-02-24T00:23:53.481Z,21.37
2018-02-24T00:26:21.001Z,23.00
2018-02-24T00:28:48.529Z,24.03
2018-02-24T00:31:16.088Z,27.93
2018-02-24T00:33:43.607Z,21.90
2018-02-24T00:36:11.126Z,24.10
2018-02-24T00:38:38.627Z,19.37
2018-02-24T00:41:06.249Z,20.10
2018-02-24T00:43:33.890Z,23.47
2018-02-24T00:46:01.419Z,24.30
2018-02-24T00:48:29.694Z,17.63
2018-02-24T00:50:58.982Z,21.20
2018-02-24T00:53:26.566Z,28.70
2018-02-24T00:55:54.841Z,26.80
2018-02-24T00:58:23.119Z,27.80
2018-02-24T01:00:51.397Z,23.80
2018-02-24T01:03:19.687Z,22.40
2018-02-24T01:05:47.217Z,25.97
2018-02-24T01:08:14.735Z,21.93
2018-02-24T01:10:42.255Z,26.70
2018-02-24T01:13:10.539Z,24.30
2018-02-24T01:15:38.066Z,21.07
2018-02-24T01:18:05.608Z,26.17
2018-02-24T01:20:33.118Z,24.10
2018-02-24T01:23:00.646Z,24.10
2018-02-24T01:25:28.150Z,23.80
2018-02-24T01:27:55.683Z,23.27
2018-02-24T01:30:23.958Z,30.27
2018-02-24T01:32:52.232Z,30.60
2018-02-24T01:35:20.526Z,22.80
2018-02-24T01:37:48.054Z,25.20
2018-02-24T01:40:15.576Z,25.43
2018-02-24T01:42:43.086Z,25.03
2018-02-24T01:45:11.367Z,30.97
2018-02-24T01:47:39.646Z,26.20
2018-02-24T01:50:07.925Z,25.73
2018-02-24T01:52:36.200Z,26.37
2018-02-24T01:55:04.487Z,24.63
2018-02-24T01:57:32.014Z,23.70
2018-02-24T01:59:59.529Z,20.23
2018-02-24T02:02:28.113Z,28.30
2018-02-24T02:04:55.633Z,22.40
2018-02-24T02:07:23.912Z,27.10
2018-02-24T02:09:52.202Z,26.33
2018-02-24T02:12:20.646Z,21.57
2018-02-24T02:14:48.176Z,25.90
2018-02-24T02:17:15.686Z,26.67
2018-02-24T02:19:43.970Z,25.43
2018-02-24T02:22:12.260Z,22.07
2018-02-24T02:24:39.767Z,24.90
2018-02-24T02:27:07.282Z,22.70
2018-02-24T02:29:34.797Z,23.90
2018-02-24T02:32:02.323Z,22.80
2018-02-24T02:34:29.826Z,20.27
2018-02-24T02:36:58.122Z,18.87
2018-02-24T02:39:26.393Z,20.70
2018-02-24T02:41:54.696Z,22.23
2018-02-24T02:44:22.219Z,25.53
2018-02-24T02:46:50.507Z,22.43
2018-02-24T02:49:18.777Z,23.70
2018-02-24T02:51:47.071Z,23.63
2018-02-24T02:54:14.595Z,27.10
2018-02-24T02:56:42.114Z,21.93
2018-02-24T02:59:10.660Z,24.33
2018-02-24T03:01:38.933Z,24.30
2018-02-24T03:04:07.225Z,25.57
2018-02-24T03:06:34.759Z,25.80
2018-02-24T03:09:04.077Z,25.40
2018-02-24T03:11:31.602Z,27.20
2018-02-24T03:13:59.125Z,27.00
2018-02-24T03:16:26.631Z,24.03
2018-02-24T03:18:54.148Z,23.03
2018-02-24T03:21:22.673Z,21.30
2018-02-24T03:23:50.194Z,23.53
2018-02-24T03:26:17.731Z,19.30
2018-02-24T03:28:45.270Z,19.07
2018-02-24T03:31:13.546Z,23.47
2018-02-24T03:33:41.835Z,24.60
2018-02-24T03:36:09.366Z,22.17
2018-02-24T03:38:36.890Z,17.87
2018-02-24T03:41:04.405Z,25.87
2018-02-24T03:43:32.682Z,21.33
2018-02-24T03:46:01.557Z,24.60
2018-02-24T03:48:29.834Z,26.93
2018-02-24T03:50:58.126Z,20.00
2018-02-24T03:53:26.404Z,21.07
2018-02-24T03:55:54.698Z,21.03
2018-02-24T03:58:22.215Z,20.80
2018-02-24T04:00:49.744Z,16.03
2018-02-24T04:03:17.254Z,22.00
2018-02-24T04:05:45.550Z,19.17
2018-02-24T04:08:13.070Z,22.27
2018-02-24T04:10:40.595Z,22.00
2018-02-24T04:13:08.106Z,18.13
2018-02-24T04:15:35.647Z,20.47
2018-02-24T04:18:03.170Z,20.23
2018-02-24T04:20:30.678Z,15.43
2018-02-24T04:22:58.977Z,16.50
2018-02-24T04:25:26.500Z,21.40
2018-02-24T04:27:54.022Z,20.30
2018-02-24T04:30:21.539Z,15.70
2018-02-24T04:32:49.847Z,19.97
2018-02-24T04:35:17.357Z,18.27
2018-02-24T04:37:44.888Z,19.97
2018-02-24T04:40:12.402Z,12.03
2018-02-24T04:42:39.992Z,17.23
2018-02-24T04:45:07.514Z,18.90
2018-02-24T04:47:35.790Z,16.87
2018-02-24T04:50:04.069Z,15.53
2018-02-24T04:52:32.350Z,18.00
2018-02-24T04:55:00.638Z,14.90
2018-02-24T04:57:28.161Z,18.60
2018-02-24T04:59:56.462Z,16.57
2018-02-24T05:02:24.734Z,26.07
2018-02-24T05:04:52.290Z,19.80
2018-02-24T05:07:20.570Z,18.37
2018-02-24T05:09:48.861Z,22.40
2018-02-24T05:12:16.392Z,16.57
2018-02-24T05:14:44.701Z,13.80
2018-02-24T05:17:12.211Z,12.73
2018-02-24T05:19:39.748Z,16.93
2018-02-24T05:22:07.257Z,15.90
2018-02-24T05:24:35.538Z,27.13
2018-02-24T05:27:03.805Z,15.67
2018-02-24T05:29:32.105Z,14.60
2018-02-24T05:31:59.631Z,16.00
2018-02-24T05:34:27.140Z,18.67
2018-02-24T05:36:54.678Z,18.53
2018-02-24T05:39:22.276Z,17.70
2018-02-24T05:41:49.805Z,17.60
2018-02-24T05:44:17.332Z,20.03
2018-02-24T05:46:44.887Z,22.30
2018-02-24T05:49:12.396Z,15.70
2018-02-24T05:51:39.936Z,21.20
2018-02-24T05:54:08.210Z,16.60
2018-02-24T05:56:36.521Z,18.03
2018-02-24T05:59:05.038Z,18.53
2018-02-24T06:01:32.578Z,17.50
2018-02-24T06:04:00.086Z,18.07
2018-02-24T06:06:28.369Z,16.73
2018-02-24T06:08:55.913Z,16.57
2018-02-24T06:11:24.200Z,15.37
2018-02-24T06:13:52.503Z,18.93
2018-02-24T06:16:20.030Z,23.27
2018-02-24T06:18:48.331Z,20.23
2018-02-24T06:21:15.860Z,20.17
2018-02-24T06:23:44.154Z,18.27
2018-02-24T06:26:12.436Z,14.07
2018-02-24T06:28:39.982Z,15.80
2018-02-24T06:31:08.275Z,15.27
2018-02-24T06:33:35.819Z,15.57
2018-02-24T06:36:04.094Z,17.20
2018-02-24T06:38:32.408Z,16.93
2018-02-24T06:40:59.936Z,15.73
2018-02-24T06:43:28.205Z,13.00
2018-02-24T06:45:56.498Z,16.37
2018-02-24T06:48:24.038Z,19.53
2018-02-24T06:50:51.577Z,17.73
2018-02-24T06:53:19.084Z,18.23
2018-02-24T06:55:46.616Z,15.83
2018-02-24T06:58:15.905Z,14.73
2018-02-24T07:00:43.499Z,15.93
2018-02-24T07:03:11.765Z,15.00
2018-02-24T07:05:40.055Z,17.87
2018-02-24T07:08:07.590Z,13.60
2018-02-24T07:10:35.874Z,19.60
2018-02-24T07:13:04.158Z,17.10
2018-02-24T07:15:31.709Z,10.70
2018-02-24T07:17:59.989Z,16.93
2018-02-24T07:20:28.298Z,17.37
2018-02-24T07:22:55.818Z,14.93
2018-02-24T07:25:24.086Z,13.63
2018-02-24T07:27:51.649Z,17.43
2018-02-24T07:30:19.154Z,14.37
2018-02-24T07:32:46.708Z,17.80
2018-02-24T07:35:14.263Z,14.40
2018-02-24T07:37:41.834Z,16.73
2018-02-24T07:40:09.369Z,18.07
2018-02-24T07:42:38.446Z,15.67
2018-02-24T07:45:06.735Z,12.93
2018-02-24T07:47:35.047Z,14.30
2018-02-24T07:50:02.547Z,17.80
2018-02-24T07:52:30.825Z,12.63
2018-02-24T07:54:58.325Z,14.67
2018-02-24T07:57:25.882Z,28.90
2018-02-24T07:59:53.394Z,20.23
2018-02-24T08:02:20.930Z,19.43
2018-02-24T08:04:48.432Z,18.20
2018-02-24T08:07:16.714Z,15.93
2018-02-24T08:09:44.277Z,19.70
2018-02-24T08:12:12.548Z,12.53
2018-02-24T08:14:40.844Z,14.83
2018-02-24T08:17:08.375Z,11.27
2018-02-24T08:19:36.675Z,11.73
2018-02-24T08:22:04.934Z,10.70
2018-02-24T08:24:33.222Z,12.37
2018-02-24T08:27:01.482Z,14.03
2018-02-24T08:29:30.504Z,13.13
2018-02-24T08:31:58.806Z,11.70
2018-02-24T08:34:26.314Z,17.50
2018-02-24T08:36:53.824Z,15.50
2018-02-24T08:39:21.389Z,13.30
2018-02-24T08:41:48.879Z,18.83
2018-02-24T08:44:16.371Z,11.70
2018-02-24T08:46:44.649Z,10.60
2018-02-24T08:49:12.910Z,11.80
2018-02-24T08:51:41.187Z,14.30
2018-02-24T08:54:09.446Z,11.80
2018-02-24T08:56:36.961Z,9.90
2018-02-24T08:59:04.464Z,10.70
2018-02-24T09:01:33.478Z,11.40
2018-02-24T09:04:01.738Z,22.33
2018-02-24T09:06:30.014Z,8.77
2018-02-24T09:08:59.061Z,11.50
2018-02-24T09:11:27.314Z,20.27
2018-02-24T09:13:55.577Z,10.00
2018-02-24T09:16:23.856Z,12.20
2018-02-24T09:18:52.113Z,14.13
2018-02-24T09:21:19.627Z,16.70
2018-02-24T09:23:48.171Z,9.10
2018-02-24T09:26:16.440Z,23.63
2018-02-24T09:28:43.956Z,9.17
2018-02-24T09:31:11.462Z,11.27
2018-02-24T09:33:39.047Z,15.50
2018-02-24T09:36:06.554Z,10.67
2018-02-24T09:38:34.077Z,36.37
2018-02-24T09:41:01.582Z,61.53
2018-02-24T09:43:29.087Z,36.90
2018-02-24T09:45:56.593Z,21.37
2018-02-24T09:48:24.112Z,13.40
2018-02-24T09:50:51.608Z,11.10
2018-02-24T09:53:19.117Z,10.80
2018-02-24T09:55:46.627Z,9.40
2018-02-24T09:58:14.118Z,8.90
2018-02-24T10:00:42.394Z,11.60
2018-02-24T10:03:10.646Z,8.63
2018-02-24T10:05:38.153Z,11.63
2018-02-24T10:08:05.720Z,14.33
2018-02-24T10:10:33.350Z,9.47
2018-02-24T10:13:01.770Z,7.23
2018-02-24T10:15:29.339Z,8.60
2018-02-24T10:17:56.854Z,9.30
2018-02-24T10:20:25.234Z,7.70
2018-02-24T10:22:53.582Z,8.90
2018-02-24T10:25:23.544Z,8.67
2018-02-24T10:27:51.051Z,7.70
2018-02-24T10:30:18.662Z,19.50
2018-02-24T10:32:46.169Z,10.80
2018-02-24T10:35:13.706Z,7.23
2018-02-24T10:37:42.218Z,9.07
2018-02-24T10:40:09.726Z,8.83
2018-02-24T10:42:37.263Z,9.73
2018-02-24T10:45:05.534Z,8.53
2018-02-24T10:47:33.810Z,8.30
2018-02-24T10:50:02.075Z,11.00
2018-02-24T10:52:29.608Z,10.70
2018-02-24T10:54:57.107Z,12.07
2018-02-24T10:57:25.427Z,8.67
2018-02-24T10:59:52.921Z,10.17
2018-02-24T11:02:20.443Z,7.50
2018-02-24T11:04:48.071Z,6.93
2018-02-24T11:07:16.385Z,7.53
2018-02-24T11:09:44.018Z,10.10
2018-02-24T11:12:11.531Z,7.10
2018-02-24T11:14:39.091Z,7.40
2018-02-24T11:17:06.604Z,7.80
2018-02-24T11:19:34.205Z,8.50
2018-02-24T11:22:01.848Z,10.47
2018-02-24T11:24:30.235Z,13.60
2018-02-24T11:26:57.814Z,9.10
2018-02-24T11:29:25.705Z,7.80
2018-02-24T11:31:53.983Z,6.87
2018-02-24T11:34:22.323Z,8.67
2018-02-24T11:36:50.245Z,13.70
2018-02-24T11:39:18.530Z,10.10
2018-02-24T11:41:46.046Z,8.40
2018-02-24T11:44:13.546Z,8.90
2018-02-24T11:46:41.914Z,8.00
2018-02-24T11:49:10.267Z,6.63
2018-02-24T11:51:38.579Z,8.97
2018-02-24T11:54:06.830Z,9.00
2018-02-24T11:56:34.341Z,7.93
2018-02-24T11:59:01.887Z,7.00
2018-02-24T12:01:30.281Z,7.80
2018-02-24T12:03:59.425Z,6.70
2018-02-24T12:06:27.739Z,7.67
2018-02-24T12:08:55.295Z,10.60
2018-02-24T12:11:23.673Z,9.17
2018-02-24T12:13:51.298Z,8.10
2018-02-24T12:16:18.794Z,7.13
2018-02-24T12:18:46.318Z,15.40
2018-02-24T12:21:13.869Z,8.17
2018-02-24T12:23:42.623Z,7.90
2018-02-24T12:26:10.252Z,14.40
2018-02-24T12:28:38.600Z,7.27
2018-02-24T12:31:06.150Z,6.70
2018-02-24T12:33:33.701Z,6.53
2018-02-24T12:36:01.858Z,7.57
2018-02-24T12:38:30.254Z,7.37
2018-02-24T12:40:57.746Z,5.80
2018-02-24T12:43:25.367Z,20.07
2018-02-24T12:45:53.110Z,5.40
2018-02-24T12:48:20.618Z,24.87
2018-02-24T12:50:48.118Z,5.40
2018-02-24T12:53:15.622Z,7.03
2018-02-24T12:55:43.139Z,5.57
2018-02-24T12:58:10.646Z,6.00
2018-02-24T13:00:38.150Z,9.73
2018-02-24T13:03:05.706Z,8.73
2018-02-24T13:05:33.227Z,6.80
2018-02-24T13:08:00.741Z,6.03
2018-02-24T13:10:28.243Z,9.37
2018-02-24T13:12:55.769Z,6.57
2018-02-24T13:15:24.280Z,6.63
2018-02-24T13:17:51.814Z,7.07
2018-02-24T13:20:20.262Z,7.77
2018-02-24T13:22:48.534Z,6.37
2018-02-24T13:25:16.879Z,7.90
2018-02-24T13:27:45.355Z,7.43
2018-02-24T13:30:12.926Z,6.53
2018-02-24T13:32:40.418Z,7.63
2018-02-24T13:35:08.748Z,7.50
2018-02-24T13:37:36.276Z,7.80
2018-02-24T13:40:03.840Z,8.30
2018-02-24T13:42:31.332Z,6.63
2018-02-24T13:44:58.860Z,8.13
2018-02-24T13:47:26.378Z,6.60
2018-02-24T13:49:55.649Z,10.40
2018-02-24T13:52:23.174Z,6.00
2018-02-24T13:54:50.686Z,8.60
2018-02-24T13:57:18.975Z,7.27
2018-02-24T13:59:46.530Z,7.33
2018-02-24T14:02:14.815Z,6.50
2018-02-24T14:04:43.066Z,6.80
2018-02-24T14:07:10.598Z,20.77
2018-02-24T14:09:38.108Z,7.77
2018-02-24T14:12:06.906Z,6.07
2018-02-24T14:14:35.182Z,11.77
2018-02-24T14:17:03.444Z,6.90
2018-02-24T14:19:31.723Z,7.10
2018-02-24T14:21:59.983Z,7.30
2018-02-24T14:24:27.484Z,7.27
2018-02-24T14:26:54.987Z,6.60
2018-02-24T14:29:22.479Z,6.63
2018-02-24T14:31:50.038Z,10.60
2018-02-24T14:34:18.296Z,7.93
2018-02-24T14:36:45.812Z,6.17
2018-02-24T14:39:13.298Z,6.13
2018-02-24T14:41:40.806Z,7.50
2018-02-24T14:44:08.323Z,6.80
2018-02-24T14:46:35.830Z,5.23
2018-02-24T14:49:03.404Z,5.60
2018-02-24T14:51:30.919Z,9.73
2018-02-24T14:53:59.998Z,4.40
2018-02-24T14:56:27.507Z,5.90
2018-02-24T14:58:55.055Z,5.33
2018-02-24T15:01:23.302Z,7.30
2018-02-24T15:03:50.958Z,5.53
2018-02-24T15:06:18.522Z,4.70
2018-02-24T15:08:46.017Z,4.40
2018-02-24T15:11:13.535Z,6.60
2018-02-24T15:13:41.038Z,4.57
2018-02-24T15:16:08.542Z,5.53
2018-02-24T15:18:36.046Z,4.13
2018-02-24T15:21:04.307Z,5.60
2018-02-24T15:23:32.578Z,4.10
2018-02-24T15:26:01.862Z,4.30
2018-02-24T15:28:29.365Z,3.30
2018-02-24T15:30:56.873Z,3.70
2018-02-24T15:33:24.383Z,4.00
2018-02-24T15:35:51.896Z,3.70
2018-02-24T15:38:19.426Z,7.20
2018-02-24T15:40:46.918Z,5.60
2018-02-24T15:43:14.427Z,4.20
2018-02-24T15:45:41.938Z,4.70
2018-02-24T15:48:09.422Z,6.67
2018-02-24T15:50:37.690Z,5.03
2018-02-24T15:53:05.962Z,3.90
2018-02-24T15:55:33.510Z,4.60
2018-02-24T15:58:00.995Z,4.23
2018-02-24T16:00:29.266Z,4.17
2018-02-24T16:02:57.519Z,5.07
2018-02-24T16:05:25.099Z,4.40
2018-02-24T16:07:53.355Z,5.30
2018-02-24T16:10:20.972Z,5.07
2018-02-24T16:12:48.477Z,6.20
2018-02-24T16:15:15.983Z,9.37
2018-02-24T16:17:43.523Z,5.57
2018-02-24T16:20:11.787Z,5.40
2018-02-24T16:22:40.066Z,5.73
2018-02-24T16:25:08.334Z,7.87
2018-02-24T16:27:35.926Z,5.60
2018-02-24T16:30:03.438Z,7.27
2018-02-24T16:32:30.948Z,8.60
2018-02-24T16:34:58.451Z,6.23
2018-02-24T16:37:25.956Z,7.63
2018-02-24T16:39:54.233Z,6.33
2018-02-24T16:42:21.814Z,6.33
2018-02-24T16:44:49.309Z,5.80
2018-02-24T16:47:16.829Z,10.30
2018-02-24T16:49:44.371Z,6.80
2018-02-24T16:52:11.890Z,7.40
2018-02-24T16:54:39.490Z,7.73
2018-02-24T16:57:07.002Z,7.40
2018-02-24T16:59:34.528Z,8.20
2018-02-24T17:02:02.043Z,6.43
2018-02-24T17:04:30.363Z,5.47
2018-02-24T17:06:57.894Z,6.77
2018-02-24T17:09:26.183Z,7.17
2018-02-24T17:11:53.702Z,6.57
2018-02-24T17:14:22.743Z,5.57
2018-02-24T17:16:50.267Z,6.77
2018-02-24T17:19:19.465Z,7.20
2018-02-24T17:21:47.791Z,7.70
2018-02-24T17:24:15.283Z,8.53
2018-02-24T17:26:42.790Z,6.60
2018-02-24T17:29:10.303Z,7.23
2018-02-24T17:31:37.824Z,6.50
2018-02-24T17:34:05.335Z,6.03
2018-02-24T17:36:32.841Z,6.23
2018-02-24T17:39:00.338Z,6.60
2018-02-24T17:41:27.964Z,8.50
2018-02-24T17:43:55.471Z,7.00
2018-02-24T17:46:24.504Z,5.20
2018-02-24T17:48:52.014Z,7.80
2018-02-24T17:51:19.528Z,8.20
2018-02-24T17:53:47.042Z,5.83
2018-02-24T17:56:15.306Z,6.17
2018-02-24T17:58:42.838Z,5.83
2018-02-24T18:01:10.334Z,5.60
2018-02-24T18:03:37.844Z,10.83
2018-02-24T18:06:05.376Z,6.83
2018-02-24T18:08:33.643Z,5.73
2018-02-24T18:11:01.926Z,7.30
2018-02-24T18:13:30.227Z,6.87
2018-02-24T18:15:57.756Z,8.40
2018-02-24T18:18:27.034Z,8.33
2018-02-24T18:20:54.656Z,5.33
2018-02-24T18:23:22.151Z,6.10
2018-02-24T18:25:49.660Z,5.60
2018-02-24T18:28:17.183Z,6.33
2018-02-24T18:30:45.463Z,9.33
2018-02-24T18:33:14.467Z,6.43
2018-02-24T18:35:42.726Z,10.07
2018-02-24T18:38:10.242Z,8.87
2018-02-24T18:40:37.735Z,6.50
2018-02-24T18:43:05.243Z,7.40
2018-02-24T18:45:32.740Z,6.17
2018-02-24T18:48:00.246Z,6.40
2018-02-24T18:50:28.508Z,7.50
2018-02-24T18:52:56.806Z,7.63
2018-02-24T18:55:24.322Z,6.27
2018-02-24T18:57:51.835Z,7.37
2018-02-24T19:00:19.343Z,5.43
2018-02-24T19:02:46.878Z,6.60
2018-02-24T19:05:14.368Z,8.47
2018-02-24T19:07:41.857Z,5.47
2018-02-24T19:10:10.126Z,5.80
2018-02-24T19:12:38.379Z,5.13
2018-02-24T19:15:05.888Z,10.07
2018-02-24T19:17:33.394Z,5.77
2018-02-24T19:20:00.919Z,5.67
2018-02-24T19:22:28.438Z,5.97
2018-02-24T19:24:56.710Z,5.80
2018-02-24T19:27:25.024Z,6.23
2018-02-24T19:29:52.530Z,6.60
2018-02-24T19:32:20.804Z,5.30
2018-02-24T19:34:48.325Z,4.80
2018-02-24T19:37:16.840Z,6.10
2018-02-24T19:39:44.343Z,4.50
2018-02-24T19:42:11.870Z,5.30
2018-02-24T19:44:41.054Z,5.80
2018-02-24T19:47:08.559Z,4.40
2018-02-24T19:49:36.098Z,6.83
2018-02-24T19:52:04.378Z,7.30
2018-02-24T19:54:32.627Z,5.20
2018-02-24T19:57:00.134Z,7.10
2018-02-24T19:59:27.644Z,5.83
2018-02-24T20:01:55.159Z,5.10
2018-02-24T20:04:22.654Z,3.97
2018-02-24T20:06:50.166Z,8.10
2018-02-24T20:09:17.670Z,5.47
2018-02-24T20:11:45.212Z,3.90
2018-02-24T20:14:12.728Z,3.70
2018-02-24T20:16:40.996Z,4.50
2018-02-24T20:19:09.285Z,6.33
2018-02-24T20:21:37.550Z,5.53
2018-02-24T20:24:05.867Z,5.03
2018-02-24T20:26:33.358Z,4.30
2018-02-24T20:29:00.878Z,5.20
2018-02-24T20:31:28.375Z,3.07
2018-02-24T20:33:55.929Z,4.30
2018-02-24T20:36:24.243Z,7.67
2018-02-24T20:38:52.523Z,6.03
2018-02-24T20:41:20.802Z,3.40
2018-02-24T20:43:49.081Z,3.10
2018-02-24T20:46:17.350Z,4.30
2018-02-24T20:48:45.617Z,6.90
2018-02-24T20:51:13.889Z,4.40
2018-02-24T20:53:41.395Z,3.40
2018-02-24T20:56:08.898Z,3.53
2018-02-24T20:58:36.402Z,2.30
2018-02-24T21:01:03.928Z,6.43
2018-02-24T21:03:32.206Z,2.97
2018-02-24T21:06:00.503Z,4.57
2018-02-24T21:08:28.766Z,2.33
2018-02-24T21:10:57.138Z,3.10
2018-02-24T21:13:24.646Z,8.50
2018-02-24T21:15:52.140Z,2.30
2018-02-24T21:18:20.458Z,2.23
2018-02-24T21:20:48.027Z,4.97
2018-02-24T21:23:15.546Z,2.27
2018-02-24T21:25:43.039Z,5.00
2018-02-24T21:28:10.568Z,3.83
2018-02-24T21:30:38.055Z,2.50
2018-02-24T21:33:05.566Z,2.57
2018-02-24T21:35:33.079Z,3.87
2018-02-24T21:38:00.590Z,3.57
2018-02-24T21:40:28.100Z,2.37
2018-02-24T21:42:55.618Z,2.30
2018-02-24T21:45:23.130Z,2.10
2018-02-24T21:47:50.638Z,3.40
2018-02-24T21:50:18.151Z,3.00
2018-02-24T21:52:46.663Z,3.53
2018-02-24T21:55:14.187Z,2.33
2018-02-24T21:57:41.677Z,2.97
2018-02-24T22:00:09.249Z,2.43
2018-02-24T22:02:36.727Z,2.40
2018-02-24T22:05:05.026Z,3.60
2018-02-24T22:07:32.552Z,3.30
2018-02-24T22:10:00.242Z,2.40
2018-02-24T22:12:27.766Z,3.27
2018-02-24T22:14:55.254Z,5.40
2018-02-24T22:17:23.539Z,3.13
2018-02-24T22:19:51.054Z,2.90
2018-02-24T22:22:18.592Z,2.13
2018-02-24T22:24:46.143Z,2.40
2018-02-24T22:27:13.668Z,2.50
2018-02-24T22:29:41.933Z,5.00
2018-02-24T22:34:17.106Z,2.83
2018-02-24T22:36:44.622Z,4.30
2018-02-24T22:39:12.137Z,2.27
2018-02-24T22:41:39.663Z,3.80
2018-02-24T22:44:07.939Z,3.10
2018-02-24T22:46:36.202Z,2.40
2018-02-24T22:49:03.727Z,8.53
2018-02-24T22:51:31.222Z,3.00
2018-02-24T22:53:58.734Z,3.00
2018-02-24T22:56:26.230Z,3.10
2018-02-24T22:58:55.258Z,2.50
2018-02-24T23:01:22.779Z,2.60
2018-02-24T23:03:50.286Z,2.72
2018-02-24T23:06:17.813Z,2.80
2018-02-24T23:08:45.300Z,2.83
2018-02-24T23:11:12.826Z,2.50
2018-02-24T23:13:40.322Z,4.73
2018-02-24T23:16:07.837Z,2.40
2018-02-24T23:18:35.351Z,2.40
2018-02-24T23:21:02.854Z,8.10
2018-02-24T23:23:30.388Z,2.10
2018-02-24T23:25:57.882Z,2.80
2018-02-24T23:28:25.430Z,2.83
2018-02-24T23:30:52.986Z,2.00
2018-02-24T23:33:20.505Z,2.23
2018-02-24T23:35:48.018Z,2.83
2018-02-24T23:38:15.518Z,2.53
2018-02-24T23:40:43.035Z,4.67
2018-02-24T23:43:10.540Z,3.10
2018-02-24T23:45:38.081Z,2.90
2018-02-24T23:48:05.608Z,2.40
2018-02-24T23:50:33.110Z,5.47
2018-02-24T23:53:00.631Z,3.13
2018-02-24T23:55:28.131Z,4.67
2018-02-24T23:57:55.649Z,2.63
